Time;durP1;ratioP1;P1;durP2;ratioP2;P2;SDS_P1;SDS_P2;PMS_P1;PMS_P2;Temp;Humidity;BMP_temperature;BMP_pressure;BME280_temperature;BME280_humidity;BME280_pressure;Samples;Min_cycle;Max_cycle;Signal;HPM_P1;HPM_P2
2022/09/23 00:01:14;;;;;;;7.87;5.07;;;;;;;;;;6031312;23;20174;-89
2022/09/23 00:04:18;;;;;;;7.60;4.73;;;;;;;;;;6031161;23;20171;-89
2022/09/23 00:07:23;;;;;;;8.97;5.03;;;;;;;;;;6047806;23;20174;-88
2022/09/23 00:10:32;;;;;;;9.60;5.60;;;;;;;;;;6030039;23;20240;-91
2022/09/23 00:13:40;;;;;;;9.33;5.27;;;;;;;;;;6031065;23;20183;-90
2022/09/23 00:16:46;;;;;;;9.83;5.83;;;;;;;;;;6031525;23;20448;-90
2022/09/23 00:19:51;;;;;;;10.77;6.03;;;;;;;;;;6030927;23;20190;-91
2022/09/23 00:22:56;;;;;;;13.60;5.80;;;;;;;;;;6028683;23;20355;-89
2022/09/23 00:26:02;;;;;;;14.73;5.60;;;;;;;;;;6048359;23;20175;-90
2022/09/23 00:29:09;;;;;;;8.97;5.30;;;;;;;;;;6031405;23;20211;-91
2022/09/23 00:32:15;;;;;;;11.20;6.10;;;;;;;;;;6030123;23;20179;-89
2022/09/23 00:35:20;;;;;;;16.50;5.60;;;;;;;;;;6031726;23;20224;-91
2022/09/23 00:38:25;;;;;;;10.67;5.97;;;;;;;;;;6030714;23;20170;-90
2022/09/23 00:41:30;;;;;;;13.13;6.13;;;;;;;;;;6029961;23;20243;-89
2022/09/23 00:44:43;;;;;;;15.30;5.57;;;;;;;;;;6031151;23;20191;-91
2022/09/23 00:47:48;;;;;;;10.80;6.50;;;;;;;;;;6028773;23;20199;-89
2022/09/23 00:50:54;;;;;;;19.07;7.23;;;;;;;;;;6029421;23;20171;-90
2022/09/23 00:53:59;;;;;;;16.40;7.20;;;;;;;;;;6029985;23;20306;-91
2022/09/23 00:57:05;;;;;;;14.23;7.70;;;;;;;;;;6029425;23;20243;-90
2022/09/23 01:00:13;;;;;;;18.50;7.10;;;;;;;;;;6029004;23;20167;-88
2022/09/23 01:03:18;;;;;;;14.27;6.73;;;;;;;;;;6030072;23;20174;-89
2022/09/23 01:06:23;;;;;;;10.57;6.47;;;;;;;;;;6029156;23;20203;-89
2022/09/23 01:09:28;;;;;;;17.17;5.80;;;;;;;;;;6030184;23;20261;-91
2022/09/23 01:12:51;;;;;;;26.83;6.57;;;;;;;;;;6028066;23;20608;-90
2022/09/23 01:16:02;;;;;;;13.77;5.50;;;;;;;;;;6030486;23;20300;-90
2022/09/23 01:19:15;;;;;;;39.80;6.93;;;;;;;;;;6028183;23;20221;-90
2022/09/23 01:22:25;;;;;;;14.10;5.87;;;;;;;;;;6029183;23;20599;-89
2022/09/23 01:25:41;;;;;;;14.60;5.77;;;;;;;;;;6028371;23;20215;-89
2022/09/23 01:28:58;;;;;;;11.27;5.90;;;;;;;;;;6027945;23;20176;-90
2022/09/23 01:32:08;;;;;;;8.67;5.57;;;;;;;;;;6027528;23;20234;-89
2022/09/23 01:35:19;;;;;;;10.13;5.63;;;;;;;;;;6029249;23;20208;-91
2022/09/23 01:38:33;;;;;;;12.87;5.57;;;;;;;;;;6029766;23;20166;-88
2022/09/23 01:41:45;;;;;;;9.57;5.43;;;;;;;;;;6029528;23;20175;-87
2022/09/23 01:44:55;;;;;;;22.40;7.23;;;;;;;;;;6046890;23;20167;-87
2022/09/23 01:48:09;;;;;;;28.80;7.50;;;;;;;;;;6047766;23;20175;-90
2022/09/23 01:51:16;;;;;;;15.23;7.20;;;;;;;;;;6031361;23;20187;-92
2022/09/23 01:54:26;;;;;;;13.50;6.27;;;;;;;;;;6028596;23;20195;-91
2022/09/23 01:57:34;;;;;;;10.53;6.57;;;;;;;;;;6030334;23;20175;-89
2022/09/23 02:00:40;;;;;;;13.57;6.63;;;;;;;;;;6029565;23;20223;-91
2022/09/23 02:03:50;;;;;;;14.73;6.20;;;;;;;;;;6030861;23;20678;-90
2022/09/23 02:06:57;;;;;;;15.87;6.73;;;;;;;;;;6030422;23;20255;-90
2022/09/23 02:10:06;;;;;;;12.20;6.70;;;;;;;;;;6029097;23;20248;-91
2022/09/23 02:13:17;;;;;;;39.63;6.50;;;;;;;;;;6029070;23;20203;-88
2022/09/23 02:16:27;;;;;;;31.13;6.03;;;;;;;;;;6031030;23;20167;-89
2022/09/23 02:19:36;;;;;;;105.57;8.20;;;;;;;;;;6031759;23;20198;-91
2022/09/23 02:22:43;;;;;;;24.30;5.90;;;;;;;;;;6030342;23;20179;-90
2022/09/23 02:25:52;;;;;;;9.03;5.70;;;;;;;;;;6029816;23;20176;-89
2022/09/23 02:29:00;;;;;;;9.93;6.00;;;;;;;;;;6030314;23;20208;-89
2022/09/23 02:32:10;;;;;;;14.07;6.47;;;;;;;;;;6030720;23;20191;-88
2022/09/23 02:35:18;;;;;;;20.30;6.40;;;;;;;;;;6049895;23;20228;-91
2022/09/23 02:38:29;;;;;;;10.57;6.47;;;;;;;;;;6032828;23;20172;-90
2022/09/23 02:41:36;;;;;;;16.07;7.17;;;;;;;;;;6046734;23;20616;-90
2022/09/23 02:44:41;;;;;;;16.43;7.20;;;;;;;;;;6034134;23;20167;-89
2022/09/23 02:47:51;;;;;;;14.90;7.70;;;;;;;;;;6050129;23;20563;-89
2022/09/23 02:51:01;;;;;;;14.27;7.37;;;;;;;;;;6034243;23;20183;-88
2022/09/23 02:54:07;;;;;;;10.40;6.23;;;;;;;;;;6033478;23;20275;-88
2022/09/23 02:57:13;;;;;;;10.67;5.73;;;;;;;;;;6031991;23;20247;-90
2022/09/23 03:00:18;;;;;;;24.50;6.63;;;;;;;;;;6032254;23;20256;-90
2022/09/23 03:03:30;;;;;;;10.67;6.20;;;;;;;;;;6031201;23;20190;-92
2022/09/23 03:06:42;;;;;;;12.57;6.67;;;;;;;;;;6029930;23;20297;-91
2022/09/23 03:09:53;;;;;;;15.70;6.23;;;;;;;;;;6030602;23;20179;-91
2022/09/23 03:13:04;;;;;;;11.27;6.17;;;;;;;;;;6028337;23;20321;-91
2022/09/23 03:16:13;;;;;;;11.43;6.00;;;;;;;;;;6030605;23;20364;-90
2022/09/23 03:19:20;;;;;;;10.10;5.43;;;;;;;;;;6029877;23;20192;-91
2022/09/23 03:22:30;;;;;;;15.07;5.87;;;;;;;;;;6029039;23;20187;-88
2022/09/23 03:25:37;;;;;;;13.90;5.53;;;;;;;;;;6029844;23;20248;-91
2022/09/23 03:28:43;;;;;;;9.03;5.90;;;;;;;;;;6029314;23;20183;-90
2022/09/23 03:31:48;;;;;;;10.07;5.80;;;;;;;;;;6047190;23;20171;-91
2022/09/23 03:34:55;;;;;;;11.20;6.00;;;;;;;;;;6030206;23;20202;-90
2022/09/23 03:38:06;;;;;;;14.33;6.43;;;;;;;;;;6028840;23;20171;-90
2022/09/23 03:41:11;;;;;;;17.63;6.43;;;;;;;;;;6031032;23;20251;-90
2022/09/23 03:44:18;;;;;;;18.77;7.10;;;;;;;;;;6028534;23;20182;-90
2022/09/23 03:47:24;;;;;;;31.37;7.27;;;;;;;;;;6030204;23;20688;-90
2022/09/23 03:50:30;;;;;;;12.17;6.70;;;;;;;;;;6046937;23;20438;-90
2022/09/23 03:53:36;;;;;;;73.90;7.87;;;;;;;;;;6029321;23;20275;-89
2022/09/23 03:56:41;;;;;;;28.17;7.37;;;;;;;;;;6031027;23;20171;-89
2022/09/23 03:59:45;;;;;;;40.87;6.80;;;;;;;;;;6044576;23;20172;-91
2022/09/23 04:02:57;;;;;;;11.80;6.57;;;;;;;;;;6028893;23;20155;-90
2022/09/23 04:06:02;;;;;;;17.87;7.20;;;;;;;;;;6030240;23;20179;-88
2022/09/23 04:09:08;;;;;;;12.40;6.60;;;;;;;;;;6029888;23;20659;-91
2022/09/23 04:12:14;;;;;;;14.00;6.47;;;;;;;;;;6030060;23;20163;-90
2022/09/23 04:15:20;;;;;;;20.33;5.67;;;;;;;;;;6029775;23;20526;-88
2022/09/23 04:18:25;;;;;;;18.77;5.37;;;;;;;;;;6031370;23;20183;-91
2022/09/23 04:21:30;;;;;;;19.13;5.50;;;;;;;;;;6046152;23;20255;-88
2022/09/23 04:24:36;;;;;;;13.07;6.13;;;;;;;;;;6030076;23;20219;-90
2022/09/23 04:27:41;;;;;;;19.70;5.67;;;;;;;;;;6031178;23;20174;-90
2022/09/23 04:30:47;;;;;;;10.33;5.50;;;;;;;;;;6030924;23;20179;-90
2022/09/23 04:33:53;;;;;;;10.17;5.70;;;;;;;;;;6030110;23;20539;-90
2022/09/23 04:36:58;;;;;;;12.17;6.20;;;;;;;;;;6045824;23;20167;-90
2022/09/23 04:40:06;;;;;;;21.23;5.93;;;;;;;;;;6046783;23;20167;-91
2022/09/23 04:43:12;;;;;;;31.70;5.90;;;;;;;;;;6030456;23;20179;-90
2022/09/23 04:46:20;;;;;;;19.63;6.30;;;;;;;;;;6032152;23;20249;-89
2022/09/23 04:49:33;;;;;;;29.13;8.60;;;;;;;;;;6032177;23;20233;-91
2022/09/23 04:52:38;;;;;;;21.67;7.17;;;;;;;;;;6047668;23;20195;-88
2022/09/23 04:55:44;;;;;;;55.00;6.73;;;;;;;;;;6048679;23;20538;-87
2022/09/23 04:58:49;;;;;;;33.47;7.40;;;;;;;;;;6048194;23;20581;-89
2022/09/23 05:01:55;;;;;;;30.87;7.30;;;;;;;;;;6030456;23;20219;-89
2022/09/23 05:05:00;;;;;;;18.47;6.70;;;;;;;;;;6030825;23;20162;-89
2022/09/23 05:08:06;;;;;;;14.07;6.90;;;;;;;;;;6030757;23;20183;-88
2022/09/23 05:11:15;;;;;;;18.57;7.30;;;;;;;;;;6031394;23;20176;-87
2022/09/23 05:14:20;;;;;;;17.33;6.97;;;;;;;;;;6031089;23;20583;-86
2022/09/23 05:17:25;;;;;;;29.67;6.87;;;;;;;;;;6031996;23;20223;-89
2022/09/23 05:20:30;;;;;;;17.57;6.30;;;;;;;;;;6034012;23;20186;-87
2022/09/23 05:23:35;;;;;;;22.73;6.77;;;;;;;;;;6033845;23;20603;-89
2022/09/23 05:26:42;;;;;;;31.00;6.37;;;;;;;;;;6032407;23;20253;-88
2022/09/23 05:29:47;;;;;;;13.57;6.30;;;;;;;;;;6031543;23;20171;-90
2022/09/23 05:32:53;;;;;;;37.73;6.77;;;;;;;;;;6029902;23;20510;-90
2022/09/23 05:35:58;;;;;;;19.70;7.00;;;;;;;;;;6033965;23;20225;-89
2022/09/23 05:39:03;;;;;;;11.93;6.43;;;;;;;;;;6030386;23;20522;-89
2022/09/23 05:42:11;;;;;;;19.77;6.73;;;;;;;;;;6032583;23;20217;-88
2022/09/23 05:45:16;;;;;;;21.90;8.07;;;;;;;;;;6033028;23;20167;-87
2022/09/23 05:48:26;;;;;;;22.10;6.30;;;;;;;;;;6050524;23;20176;-88
2022/09/23 05:51:31;;;;;;;26.73;7.00;;;;;;;;;;6048246;23;20302;-88
2022/09/23 05:54:37;;;;;;;23.27;7.43;;;;;;;;;;6029758;23;20198;-89
2022/09/23 05:57:44;;;;;;;13.77;6.60;;;;;;;;;;6032275;23;20271;-88
2022/09/23 06:00:49;;;;;;;17.63;7.00;;;;;;;;;;6049466;23;20178;-88
2022/09/23 06:03:55;;;;;;;30.03;6.07;;;;;;;;;;6049324;23;20171;-87
2022/09/23 06:07:04;;;;;;;12.23;6.20;;;;;;;;;;6031339;23;20288;-88
2022/09/23 06:10:19;;;;;;;13.47;5.63;;;;;;;;;;6031496;23;20167;-88
2022/09/23 06:13:27;;;;;;;18.27;5.83;;;;;;;;;;6031055;23;20180;-88
2022/09/23 06:16:33;;;;;;;11.00;5.67;;;;;;;;;;6031015;23;20179;-88
2022/09/23 06:19:38;;;;;;;11.13;6.30;;;;;;;;;;6034806;23;20205;-89
2022/09/23 06:22:43;;;;;;;29.70;6.07;;;;;;;;;;6032791;23;20171;-89
2022/09/23 06:25:48;;;;;;;9.13;5.30;;;;;;;;;;6049596;23;20175;-90
2022/09/23 06:28:55;;;;;;;8.50;4.83;;;;;;;;;;6033458;23;20171;-91
2022/09/23 06:32:00;;;;;;;22.27;4.87;;;;;;;;;;6033376;23;20204;-89
2022/09/23 06:35:06;;;;;;;12.70;5.33;;;;;;;;;;6034707;23;20199;-90
2022/09/23 06:38:11;;;;;;;7.47;4.37;;;;;;;;;;6034433;23;20239;-90
2022/09/23 06:41:19;;;;;;;8.93;4.50;;;;;;;;;;6049792;23;20175;-89
2022/09/23 06:44:27;;;;;;;7.90;4.10;;;;;;;;;;6031531;23;20221;-88
2022/09/23 06:47:34;;;;;;;9.57;3.73;;;;;;;;;;6033682;23;20155;-89
2022/09/23 06:50:39;;;;;;;9.00;4.10;;;;;;;;;;6034012;23;20248;-90
2022/09/23 06:53:44;;;;;;;9.40;4.27;;;;;;;;;;6032019;23;20170;-89
2022/09/23 06:56:49;;;;;;;9.00;4.33;;;;;;;;;;6034419;23;20179;-89
2022/09/23 06:59:57;;;;;;;5.93;3.80;;;;;;;;;;6032438;23;20190;-89
2022/09/23 07:03:02;;;;;;;7.17;3.93;;;;;;;;;;6033235;23;20162;-88
2022/09/23 07:06:07;;;;;;;10.70;3.80;;;;;;;;;;6048124;23;20170;-90
2022/09/23 07:09:12;;;;;;;7.00;4.23;;;;;;;;;;6032165;23;20175;-89
2022/09/23 07:12:17;;;;;;;7.93;4.57;;;;;;;;;;6031096;23;20171;-89
2022/09/23 07:15:24;;;;;;;7.83;4.70;;;;;;;;;;6030489;23;20198;-88
2022/09/23 07:18:30;;;;;;;9.93;5.33;;;;;;;;;;6034393;23;20198;-90
2022/09/23 07:21:35;;;;;;;8.73;5.40;;;;;;;;;;6033399;23;20175;-91
2022/09/23 07:24:40;;;;;;;10.57;5.37;;;;;;;;;;6032516;23;20631;-89
2022/09/23 07:27:46;;;;;;;10.10;5.23;;;;;;;;;;6032313;23;20170;-91
2022/09/23 07:30:52;;;;;;;12.80;6.57;;;;;;;;;;6032655;23;20216;-88
2022/09/23 07:33:59;;;;;;;17.10;6.93;;;;;;;;;;6030991;23;20178;-89
2022/09/23 07:37:05;;;;;;;14.27;7.37;;;;;;;;;;6049095;23;20229;-88
2022/09/23 07:40:10;;;;;;;12.83;6.43;;;;;;;;;;6034094;23;20553;-88
2022/09/23 07:43:15;;;;;;;13.20;6.90;;;;;;;;;;6035671;23;20640;-87
2022/09/23 07:46:22;;;;;;;12.30;6.05;;;;;;;;;;6036528;23;20196;-89
2022/09/23 07:49:31;;;;;;;11.25;6.30;;;;;;;;;;6033603;23;20167;-89
2022/09/23 07:52:37;;;;;;;11.15;5.88;;;;;;;;;;6036029;23;20167;-89
2022/09/23 07:55:41;;;;;;;12.43;6.30;;;;;;;;;;6034570;23;20273;-88
2022/09/23 07:58:58;;;;;;;9.67;5.30;;;;;;;;;;6035272;23;20170;-91
2022/09/23 08:02:06;;;;;;;12.57;5.73;;;;;;;;;;6031739;23;20175;-90
2022/09/23 08:05:11;;;;;;;16.87;8.53;;;;;;;;;;6031098;23;20175;-91
2022/09/23 08:08:17;;;;;;;11.32;5.72;;;;;;;;;;6032057;23;20163;-89
2022/09/23 08:11:22;;;;;;;10.43;5.10;;;;;;;;;;6030891;23;20184;-90
2022/09/23 08:14:27;;;;;;;5.40;3.80;;;;;;;;;;6031586;23;20576;-89
2022/09/23 08:17:36;;;;;;;7.22;4.00;;;;;;;;;;6040387;23;20278;-90
2022/09/23 08:20:44;;;;;;;8.52;4.80;;;;;;;;;;6033025;23;20171;-90
2022/09/23 08:23:50;;;;;;;7.47;4.57;;;;;;;;;;6030229;23;20627;-89
2022/09/23 08:26:56;;;;;;;7.60;3.92;;;;;;;;;;6032318;23;20196;-89
2022/09/23 08:30:01;;;;;;;6.05;3.85;;;;;;;;;;6033412;23;20163;-88
2022/09/23 08:33:08;;;;;;;6.70;4.10;;;;;;;;;;6032175;23;20180;-90
2022/09/23 08:36:12;;;;;;;6.97;4.40;;;;;;;;;;6035323;23;20214;-89
2022/09/23 08:39:19;;;;;;;11.30;4.30;;;;;;;;;;6033539;23;20167;-89
2022/09/23 08:42:28;;;;;;;19.70;9.20;;;;;;;;;;6034918;23;20502;-89
2022/09/23 08:45:35;;;;;;;7.88;4.38;;;;;;;;;;6034988;23;20194;-89
2022/09/23 08:48:43;;;;;;;7.18;4.10;;;;;;;;;;6051055;23;20167;-90
2022/09/23 08:51:49;;;;;;;8.13;3.67;;;;;;;;;;6030978;23;20175;-89
2022/09/23 08:54:54;;;;;;;10.27;4.05;;;;;;;;;;6029838;23;20327;-91
2022/09/23 08:58:07;;;;;;;8.10;3.38;;;;;;;;;;6029787;23;20175;-90
2022/09/23 09:01:17;;;;;;;5.72;3.22;;;;;;;;;;6032027;23;20285;-91
2022/09/23 09:04:27;;;;;;;5.70;3.40;;;;;;;;;;6048735;23;20182;-91
2022/09/23 09:07:34;;;;;;;4.75;2.70;;;;;;;;;;6033466;23;20175;-91
2022/09/23 09:10:44;;;;;;;4.65;2.67;;;;;;;;;;6031967;23;20225;-90
2022/09/23 09:13:53;;;;;;;4.82;2.70;;;;;;;;;;6029584;23;20199;-90
2022/09/23 09:16:59;;;;;;;4.50;2.67;;;;;;;;;;6028836;23;20174;-91
2022/09/23 09:20:08;;;;;;;6.40;2.53;;;;;;;;;;6031616;23;20172;-93
2022/09/23 09:23:20;;;;;;;4.20;2.40;;;;;;;;;;6047907;23;20230;-91
2022/09/23 09:26:27;;;;;;;5.47;2.17;;;;;;;;;;6051347;23;20254;-91
2022/09/23 09:29:37;;;;;;;4.38;2.60;;;;;;;;;;6031755;23;20191;-92
2022/09/23 09:32:46;;;;;;;9.90;2.95;;;;;;;;;;6036697;23;20623;-92
2022/09/23 09:36:08;;;;;;;5.68;2.70;;;;;;;;;;6033687;23;20195;-91
2022/09/23 09:39:14;;;;;;;3.58;2.33;;;;;;;;;;6033328;23;20171;-91
2022/09/23 12:45:15;;;;;;;2.20;1.30;;;;;;;;;;6070822;23;20226;-86
2022/09/23 12:48:39;;;;;;;3.97;2.20;;;;;;;;;;6092845;23;20178;-89
2022/09/23 12:52:04;;;;;;;2.40;1.27;;;;;;;;;;6095328;23;20166;-88
2022/09/23 12:55:23;;;;;;;1.90;1.40;;;;;;;;;;6093401;23;20269;-90
2022/09/23 12:58:39;;;;;;;1.70;1.30;;;;;;;;;;6091091;23;20193;-90
2022/09/23 13:01:45;;;;;;;1.70;1.15;;;;;;;;;;6088582;23;20185;-89
2022/09/23 13:08:19;;;;;;;4.50;1.40;;;;;;;;;;6089666;23;20614;-90
2022/09/23 13:11:26;;;;;;;2.35;1.30;;;;;;;;;;6088351;23;20218;-90
2022/09/23 13:14:36;;;;;;;1.95;1.25;;;;;;;;;;6090088;23;20170;-90
2022/09/23 13:17:43;;;;;;;4.47;1.70;;;;;;;;;;6091683;23;20186;-90
2022/09/23 13:20:49;;;;;;;4.75;1.38;;;;;;;;;;6090253;23;20174;-91
2022/09/23 13:24:13;;;;;;;2.10;1.38;;;;;;;;;;6092348;23;20326;-89
2022/09/23 13:27:36;;;;;;;1.52;1.13;;;;;;;;;;6091033;23;20175;-89
2022/09/23 13:30:48;;;;;;;1.77;1.10;;;;;;;;;;6092447;23;20170;-89
2022/09/23 13:34:00;;;;;;;3.25;1.50;;;;;;;;;;6089205;23;20169;-90
2022/09/23 13:37:12;;;;;;;2.47;1.33;;;;;;;;;;6088650;23;20286;-88
2022/09/23 13:40:18;;;;;;;1.10;1.00;;;;;;;;;;6089688;23;20165;-88
2022/09/23 13:43:26;;;;;;;1.23;0.90;;;;;;;;;;6087763;23;20173;-90
2022/09/23 13:46:35;;;;;;;1.48;0.90;;;;;;;;;;6086279;23;20170;-90
2022/09/23 13:49:42;;;;;;;1.88;1.08;;;;;;;;;;6090728;23;20203;-88
2022/09/23 13:52:51;;;;;;;0.90;0.80;;;;;;;;;;6088469;23;20269;-90
2022/09/23 13:56:01;;;;;;;1.25;1.00;;;;;;;;;;6089388;23;20194;-88
2022/09/23 13:59:14;;;;;;;3.92;1.10;;;;;;;;;;6091107;23;20173;-91
2022/09/23 14:02:19;;;;;;;2.00;1.23;;;;;;;;;;6088132;23;20153;-89
2022/09/23 14:05:27;;;;;;;1.40;1.00;;;;;;;;;;6088553;23;20239;-88
2022/09/23 14:08:32;;;;;;;1.92;1.20;;;;;;;;;;6090005;23;20162;-89
2022/09/23 14:11:38;;;;;;;1.65;1.20;;;;;;;;;;6087655;23;20209;-89
2022/09/23 14:14:45;;;;;;;1.80;1.00;;;;;;;;;;6089127;23;20226;-89
2022/09/23 14:17:53;;;;;;;2.05;1.00;;;;;;;;;;6087104;23;20178;-90
2022/09/23 14:20:59;;;;;;;2.08;1.45;;;;;;;;;;6089717;23;20194;-89
2022/09/23 14:24:15;;;;;;;1.52;1.13;;;;;;;;;;6087513;23;20169;-88
2022/09/23 14:27:24;;;;;;;1.38;1.00;;;;;;;;;;6104044;23;20249;-91
2022/09/23 14:30:28;;;;;;;4.47;1.85;;;;;;;;;;6089058;23;20177;-90
2022/09/23 14:33:34;;;;;;;4.53;2.50;;;;;;;;;;6103507;23;20178;-88
2022/09/23 14:40:06;;;;;;;4.93;1.15;;;;;;;;;;6091448;23;20166;-89
2022/09/23 14:43:17;;;;;;;2.50;1.38;;;;;;;;;;6091520;23;20170;-90
2022/09/23 14:46:24;;;;;;;6.70;1.80;;;;;;;;;;6091028;23;20185;-90
2022/09/23 14:49:29;;;;;;;3.10;1.80;;;;;;;;;;6089175;23;20206;-88
2022/09/23 14:52:36;;;;;;;61.97;27.77;;;;;;;;;;6086738;23;20294;-89
2022/09/23 14:55:41;;;;;;;2.10;1.70;;;;;;;;;;6088253;23;20200;-88
2022/09/23 14:58:48;;;;;;;3.35;1.00;;;;;;;;;;6089966;23;20190;-88
2022/09/23 15:01:53;;;;;;;6.40;1.10;;;;;;;;;;6086815;23;20173;-88
2022/09/23 15:05:18;;;;;;;1.67;1.15;;;;;;;;;;6089692;23;20199;-87
2022/09/23 15:08:31;;;;;;;1.63;1.27;;;;;;;;;;6091800;23;20189;-88
2022/09/23 15:11:37;;;;;;;1.77;1.10;;;;;;;;;;6074945;23;20190;-88
2022/09/23 15:14:45;;;;;;;2.78;1.30;;;;;;;;;;6088637;23;20197;-88
2022/09/23 15:17:50;;;;;;;5.65;1.45;;;;;;;;;;6089010;23;20177;-87
2022/09/23 15:20:59;;;;;;;2.10;1.27;;;;;;;;;;6087635;23;20243;-88
2022/09/23 15:24:06;;;;;;;5.25;1.23;;;;;;;;;;6084047;23;20582;-87
2022/09/23 15:27:14;;;;;;;2.67;1.15;;;;;;;;;;6086520;23;20173;-88
2022/09/23 15:30:20;;;;;;;2.08;1.02;;;;;;;;;;6086962;23;20268;-88
2022/09/23 15:33:27;;;;;;;1.83;1.10;;;;;;;;;;6084745;23;20178;-86
2022/09/23 15:36:43;;;;;;;3.67;1.45;;;;;;;;;;6104605;23;20250;-88
2022/09/23 15:39:52;;;;;;;1.98;0.90;;;;;;;;;;6089342;23;20173;-87
2022/09/23 15:42:58;;;;;;;4.80;1.42;;;;;;;;;;6086052;23;20166;-89
2022/09/23 15:46:06;;;;;;;3.05;1.38;;;;;;;;;;6103086;23;20197;-87
2022/09/23 15:49:26;;;;;;;2.03;1.00;;;;;;;;;;6083775;23;20265;-86
2022/09/23 15:52:31;;;;;;;2.03;0.90;;;;;;;;;;6086982;23;20233;-89
2022/09/23 15:55:37;;;;;;;4.88;2.80;;;;;;;;;;6088040;23;20286;-90
2022/09/23 15:58:46;;;;;;;4.75;1.80;;;;;;;;;;6088525;23;20213;-89
2022/09/23 16:01:52;;;;;;;3.10;1.20;;;;;;;;;;6086246;23;20303;-89
2022/09/23 16:05:00;;;;;;;6.15;1.20;;;;;;;;;;6090193;23;20214;-89
2022/09/23 16:08:05;;;;;;;4.35;1.10;;;;;;;;;;6091918;23;20186;-88
2022/09/23 16:11:16;;;;;;;4.68;1.65;;;;;;;;;;6091149;23;20223;-88
2022/09/23 16:14:21;;;;;;;6.85;2.83;;;;;;;;;;6089545;23;20245;-91
2022/09/23 16:17:27;;;;;;;5.25;1.60;;;;;;;;;;6089944;23;20193;-89
2022/09/23 16:20:37;;;;;;;4.82;1.95;;;;;;;;;;6089469;23;20169;-90
2022/09/23 16:23:46;;;;;;;3.95;2.05;;;;;;;;;;6089816;23;20575;-90
2022/09/23 16:26:52;;;;;;;4.28;2.80;;;;;;;;;;6087960;23;20189;-89
2022/09/23 16:29:57;;;;;;;3.85;1.80;;;;;;;;;;6088403;23;20219;-92
2022/09/23 16:33:03;;;;;;;2.80;1.90;;;;;;;;;;6092723;23;20186;-91
2022/09/23 16:36:13;;;;;;;7.45;1.80;;;;;;;;;;6089629;23;20259;-90
2022/09/23 16:39:19;;;;;;;4.22;2.33;;;;;;;;;;6088548;23;20250;-90
2022/09/23 16:42:26;;;;;;;4.85;2.30;;;;;;;;;;6091214;23;20281;-89
2022/09/23 16:45:32;;;;;;;12.57;3.90;;;;;;;;;;6087911;23;20197;-92
2022/09/23 16:48:40;;;;;;;9.38;4.72;;;;;;;;;;6087795;23;20942;-91
2022/09/23 16:51:45;;;;;;;12.52;6.50;;;;;;;;;;6088447;23;20641;-91
2022/09/23 16:54:51;;;;;;;11.73;4.85;;;;;;;;;;6088103;23;20257;-90
2022/09/23 16:58:04;;;;;;;10.38;4.68;;;;;;;;;;6088447;23;20213;-91
2022/09/23 17:04:37;;;;;;;6.55;3.13;;;;;;;;;;6090814;23;20194;-90
2022/09/23 17:07:42;;;;;;;5.10;2.80;;;;;;;;;;6090385;23;20433;-90
2022/09/23 17:10:56;;;;;;;4.88;2.95;;;;;;;;;;6086410;23;20178;-91
2022/09/23 17:14:03;;;;;;;5.13;3.00;;;;;;;;;;6090060;23;20199;-90
2022/09/23 17:17:08;;;;;;;7.68;3.00;;;;;;;;;;6085526;23;20269;-92
2022/09/23 17:20:15;;;;;;;33.15;15.95;;;;;;;;;;6085903;23;20181;-89
2022/09/23 17:23:27;;;;;;;39.58;16.35;;;;;;;;;;6088342;23;20223;-90
2022/09/23 17:26:32;;;;;;;43.00;17.70;;;;;;;;;;6089609;23;20253;-90
2022/09/23 17:29:39;;;;;;;7.78;3.92;;;;;;;;;;6088996;23;20165;-91
2022/09/23 17:32:44;;;;;;;6.47;2.92;;;;;;;;;;6089632;23;20174;-92
2022/09/23 17:35:53;;;;;;;10.88;5.53;;;;;;;;;;6089939;23;20673;-91
2022/09/23 17:38:58;;;;;;;9.80;4.88;;;;;;;;;;6090124;23;20153;-92
2022/09/23 17:42:03;;;;;;;13.88;6.25;;;;;;;;;;6091372;23;20198;-92
2022/09/23 17:45:11;;;;;;;8.50;3.67;;;;;;;;;;6091291;23;20486;-92
2022/09/23 17:48:19;;;;;;;8.35;4.10;;;;;;;;;;6092904;23;20162;-92
2022/09/23 17:51:25;;;;;;;8.50;4.28;;;;;;;;;;6091459;23;20222;-93
2022/09/23 17:54:31;;;;;;;10.15;4.70;;;;;;;;;;6093511;23;20230;-93
2022/09/23 17:57:37;;;;;;;14.38;5.38;;;;;;;;;;6091654;23;20205;-92
2022/09/23 18:00:46;;;;;;;14.95;6.18;;;;;;;;;;6090770;23;20177;-91
2022/09/23 18:03:53;;;;;;;14.68;6.13;;;;;;;;;;6072577;23;20177;-92
2022/09/23 18:06:59;;;;;;;24.55;12.50;;;;;;;;;;6088824;23;20181;-93
2022/09/23 18:10:04;;;;;;;17.85;9.02;;;;;;;;;;6090190;23;20177;-92
2022/09/23 18:13:10;;;;;;;18.98;8.70;;;;;;;;;;6089324;23;20549;-93
2022/09/23 18:16:16;;;;;;;12.13;5.57;;;;;;;;;;6091521;23;20178;-91
2022/09/23 18:19:23;;;;;;;17.92;8.95;;;;;;;;;;6091380;23;20174;-90
2022/09/23 18:22:28;;;;;;;9.57;5.75;;;;;;;;;;6091747;23;20241;-90
2022/09/23 18:25:33;;;;;;;7.88;4.03;;;;;;;;;;6091376;23;20158;-91
2022/09/23 18:28:38;;;;;;;8.43;4.65;;;;;;;;;;6092632;23;20245;-89
2022/09/23 18:31:48;;;;;;;37.38;18.98;;;;;;;;;;6093348;23;20286;-92
2022/09/23 18:34:54;;;;;;;29.63;15.70;;;;;;;;;;6091508;23;20178;-91
2022/09/23 18:38:00;;;;;;;18.63;6.38;;;;;;;;;;6092683;23;20196;-92
2022/09/23 18:41:06;;;;;;;14.65;7.38;;;;;;;;;;6095943;23;20170;-90
2022/09/23 18:44:11;;;;;;;16.40;7.10;;;;;;;;;;6091165;23;20189;-91
2022/09/23 18:50:41;;;;;;;23.35;10.77;;;;;;;;;;6087187;23;20170;-90
2022/09/23 18:53:49;;;;;;;37.78;14.77;;;;;;;;;;6086215;23;20257;-89
2022/09/23 18:56:54;;;;;;;16.00;7.07;;;;;;;;;;6089333;23;20267;-90
2022/09/23 18:59:59;;;;;;;11.13;6.13;;;;;;;;;;6090094;23;20211;-91
2022/09/23 19:03:06;;;;;;;14.50;5.68;;;;;;;;;;6090556;23;20185;-92
2022/09/23 19:06:11;;;;;;;14.38;5.13;;;;;;;;;;6088830;23;20600;-92
2022/09/23 19:09:17;;;;;;;16.98;8.45;;;;;;;;;;6092650;23;20186;-91
2022/09/23 19:12:22;;;;;;;19.33;7.50;;;;;;;;;;6090708;23;20218;-91
2022/09/23 19:15:28;;;;;;;13.00;6.00;;;;;;;;;;6090316;23;20205;-91
2022/09/23 19:18:35;;;;;;;11.15;5.45;;;;;;;;;;6090136;23;20201;-91
2022/09/23 19:21:40;;;;;;;13.82;6.13;;;;;;;;;;6088932;23;20240;-91
2022/09/23 19:24:47;;;;;;;14.00;5.28;;;;;;;;;;6091296;23;20209;-90
2022/09/23 19:27:52;;;;;;;14.30;5.85;;;;;;;;;;6090201;23;20499;-93
2022/09/23 19:30:58;;;;;;;13.73;7.53;;;;;;;;;;6091721;23;20181;-92
2022/09/23 19:34:09;;;;;;;16.83;6.93;;;;;;;;;;6090806;23;20562;-90
2022/09/23 19:37:15;;;;;;;17.55;7.38;;;;;;;;;;6088248;23;20517;-91
2022/09/23 19:40:20;;;;;;;19.58;7.30;;;;;;;;;;6087275;23;20174;-89
2022/09/23 19:43:25;;;;;;;20.75;9.98;;;;;;;;;;6090004;23;20170;-90
2022/09/23 19:46:31;;;;;;;11.43;5.90;;;;;;;;;;6090708;23;20173;-89
2022/09/23 19:49:37;;;;;;;16.90;6.82;;;;;;;;;;6089854;23;20274;-90
2022/09/23 19:52:42;;;;;;;11.50;5.97;;;;;;;;;;6092673;23;20317;-90
2022/09/23 19:55:48;;;;;;;19.73;8.45;;;;;;;;;;6089460;23;20289;-89
2022/09/23 19:58:54;;;;;;;16.10;7.10;;;;;;;;;;6090299;23;20198;-89
2022/09/23 20:02:03;;;;;;;13.73;6.03;;;;;;;;;;6090356;23;20194;-91
2022/09/23 20:05:11;;;;;;;11.98;5.22;;;;;;;;;;6090318;23;20197;-91
2022/09/23 20:08:18;;;;;;;7.82;4.63;;;;;;;;;;6089700;23;20244;-91
2022/09/23 20:11:24;;;;;;;14.32;5.00;;;;;;;;;;6091526;23;20165;-89
2022/09/23 20:14:30;;;;;;;9.57;4.93;;;;;;;;;;6091297;23;20178;-89
2022/09/23 20:17:35;;;;;;;62.50;28.85;;;;;;;;;;6092576;23;20193;-91
2022/09/23 20:20:42;;;;;;;9.80;4.93;;;;;;;;;;6093490;23;20707;-91
2022/09/23 20:23:48;;;;;;;15.82;5.30;;;;;;;;;;6087672;23;20190;-90
2022/09/23 20:27:11;;;;;;;11.20;4.50;;;;;;;;;;6088440;23;20210;-91
2022/09/23 20:30:17;;;;;;;10.80;4.70;;;;;;;;;;6087790;23;20174;-89
2022/09/23 20:33:22;;;;;;;12.07;5.57;;;;;;;;;;6091029;23;20178;-89
2022/09/23 20:36:29;;;;;;;10.10;4.60;;;;;;;;;;6089639;23;20190;-90
2022/09/23 20:39:34;;;;;;;10.30;4.10;;;;;;;;;;6087483;23;20177;-91
2022/09/23 20:42:39;;;;;;;9.27;4.30;;;;;;;;;;6088673;23;20233;-91
2022/09/23 20:45:49;;;;;;;13.57;4.20;;;;;;;;;;6086803;23;20204;-90
2022/09/23 20:48:55;;;;;;;12.00;5.03;;;;;;;;;;6086389;23;20245;-89
2022/09/23 20:52:05;;;;;;;10.43;4.43;;;;;;;;;;6089868;23;20198;-90
2022/09/23 20:55:10;;;;;;;13.55;5.32;;;;;;;;;;6090793;23;20178;-89
2022/09/23 20:58:15;;;;;;;11.50;5.22;;;;;;;;;;6092908;23;20599;-89
2022/09/23 21:01:21;;;;;;;13.13;6.22;;;;;;;;;;6087619;23;20162;-88
2022/09/23 21:04:26;;;;;;;11.80;4.95;;;;;;;;;;6086983;23;20162;-90
2022/09/23 21:07:32;;;;;;;10.63;5.10;;;;;;;;;;6088583;23;20206;-90
2022/09/23 21:10:41;;;;;;;11.05;4.45;;;;;;;;;;6087983;23;20170;-90
2022/09/23 21:13:47;;;;;;;13.30;4.82;;;;;;;;;;6087980;23;20214;-89
2022/09/23 21:16:53;;;;;;;9.05;4.72;;;;;;;;;;6086985;23;20241;-91
2022/09/23 21:20:00;;;;;;;7.80;4.00;;;;;;;;;;6087250;23;20177;-91
2022/09/23 21:23:09;;;;;;;10.30;4.35;;;;;;;;;;6087548;23;20190;-90
2022/09/23 21:26:16;;;;;;;9.70;4.57;;;;;;;;;;6087710;23;20170;-89
2022/09/23 21:29:21;;;;;;;9.07;4.38;;;;;;;;;;6088809;23;20225;-91
2022/09/23 21:32:25;;;;;;;8.27;4.20;;;;;;;;;;6087233;23;20169;-90
2022/09/23 21:35:30;;;;;;;9.13;4.55;;;;;;;;;;6085077;23;20174;-90
2022/09/23 21:38:37;;;;;;;8.55;4.38;;;;;;;;;;6085867;23;20213;-89
2022/09/23 21:41:42;;;;;;;12.00;4.57;;;;;;;;;;6087379;23;20258;-89
2022/09/23 21:44:46;;;;;;;10.35;4.43;;;;;;;;;;6087218;23;20252;-91
2022/09/23 21:47:54;;;;;;;10.65;5.65;;;;;;;;;;6087547;23;20216;-90
2022/09/23 21:51:00;;;;;;;13.57;6.70;;;;;;;;;;6086221;23;20174;-91